Time;durP1;ratioP1;P1;durP2;ratioP2;P2;SDS_P1;SDS_P2;PMS_P1;PMS_P2;Temp;Humidity;BMP_temperature;BMP_pressure;BME280_temperature;BME280_humidity;BME280_pressure;Samples;Min_cycle;Max_cycle;Signal;HPM_P1;HPM_P2
2021/09/06 00:01:35;;;;;;;10.73;8.50;;;11.50;99.90;;;;;;5093773;28;20279;-89
2021/09/06 00:04:01;;;;;;;15.00;10.40;;;11.50;99.90;;;;;;5093830;28;20218;-89
2021/09/06 00:06:27;;;;;;;10.77;8.33;;;11.40;99.90;;;;;;5093637;28;20177;-89
2021/09/06 00:08:52;;;;;;;12.00;8.77;;;11.40;99.90;;;;;;5093073;28;20248;-88
2021/09/06 00:11:18;;;;;;;12.03;8.73;;;11.40;99.90;;;;;;5093745;28;20481;-88
2021/09/06 00:13:44;;;;;;;11.50;8.33;;;11.20;99.90;;;;;;5093682;28;20178;-88
2021/09/06 00:16:10;;;;;;;13.10;10.10;;;11.20;99.90;;;;;;5093864;28;20187;-89
2021/09/06 00:18:36;;;;;;;11.87;8.97;;;11.20;99.90;;;;;;5093695;28;20177;-88
2021/09/06 00:21:03;;;;;;;11.30;9.10;;;11.20;99.90;;;;;;5093429;28;20238;-89
2021/09/06 00:23:29;;;;;;;12.80;9.37;;;11.20;99.90;;;;;;5093644;28;20434;-89
2021/09/06 00:25:55;;;;;;;11.27;8.20;;;11.10;99.90;;;;;;5094702;28;20422;-88
2021/09/06 00:28:21;;;;;;;13.23;8.80;;;11.10;99.90;;;;;;5093102;28;20462;-89
2021/09/06 00:30:47;;;;;;;10.53;8.70;;;11.10;99.90;;;;;;5093123;28;20416;-89
2021/09/06 00:33:12;;;;;;;10.97;8.30;;;11.10;99.90;;;;;;5093157;28;20236;-89
2021/09/06 00:35:38;;;;;;;12.53;8.77;;;11.10;99.90;;;;;;5093252;28;20419;-91
2021/09/06 00:38:04;;;;;;;12.27;9.00;;;11.00;99.90;;;;;;5093525;28;20165;-90
2021/09/06 00:40:30;;;;;;;12.53;8.70;;;11.10;99.90;;;;;;5093108;28;20415;-89
2021/09/06 00:42:55;;;;;;;14.60;10.17;;;10.90;99.90;;;;;;5093588;28;20266;-90
2021/09/06 00:45:21;;;;;;;11.87;8.50;;;11.00;99.90;;;;;;5094841;28;20211;-89
2021/09/06 00:47:46;;;;;;;13.30;10.87;;;11.00;99.90;;;;;;5094532;28;20172;-89
2021/09/06 00:50:14;;;;;;;12.67;9.73;;;11.00;99.90;;;;;;5093586;28;20196;-90
2021/09/06 00:52:43;;;;;;;11.03;9.17;;;10.90;99.90;;;;;;5093099;28;20177;-90
2021/09/06 00:55:10;;;;;;;10.40;7.57;;;10.90;99.90;;;;;;5092838;28;20411;-89
2021/09/06 00:57:36;;;;;;;12.90;9.60;;;10.80;99.90;;;;;;5093103;28;20931;-88
2021/09/06 01:00:07;;;;;;;12.70;8.97;;;10.70;99.90;;;;;;5093837;28;20406;-88
2021/09/06 01:02:33;;;;;;;14.13;10.43;;;10.70;99.90;;;;;;5092559;28;20505;-88
2021/09/06 01:04:59;;;;;;;13.33;8.57;;;10.70;99.90;;;;;;5092773;28;20446;-88
2021/09/06 01:07:24;;;;;;;12.10;9.17;;;10.70;99.90;;;;;;5093986;28;20169;-89
2021/09/06 01:09:50;;;;;;;11.00;9.13;;;10.60;99.90;;;;;;5092154;28;20590;-88
2021/09/06 01:12:16;;;;;;;13.33;10.73;;;10.60;99.90;;;;;;5092725;28;20220;-88
2021/09/06 01:14:42;;;;;;;13.73;10.37;;;10.60;99.90;;;;;;5093710;28;20915;-88
2021/09/06 01:17:08;;;;;;;13.87;10.70;;;10.50;99.90;;;;;;5093634;28;20207;-88
2021/09/06 01:19:34;;;;;;;14.53;9.80;;;10.50;99.90;;;;;;5092696;28;20185;-88
2021/09/06 01:22:00;;;;;;;11.13;8.87;;;10.50;99.90;;;;;;5093470;28;20462;-88
2021/09/06 01:24:26;;;;;;;14.03;8.40;;;10.50;99.90;;;;;;5093206;28;20778;-88
2021/09/06 01:26:52;;;;;;;11.37;8.67;;;10.50;99.90;;;;;;5092413;28;20482;-87
2021/09/06 01:29:18;;;;;;;15.07;9.67;;;10.50;99.90;;;;;;5093454;28;20166;-87
2021/09/06 01:31:43;;;;;;;13.90;9.57;;;10.60;99.90;;;;;;5092342;28;20527;-89
2021/09/06 01:34:11;;;;;;;13.00;9.70;;;10.50;99.90;;;;;;5092347;28;20176;-89
2021/09/06 01:36:37;;;;;;;14.90;10.17;;;10.60;99.90;;;;;;5093681;28;20172;-88
2021/09/06 01:39:04;;;;;;;12.23;10.03;;;10.60;99.90;;;;;;5093278;28;20427;-88
2021/09/06 01:41:30;;;;;;;15.00;9.10;;;10.60;99.90;;;;;;5091979;28;20479;-87
2021/09/06 01:43:56;;;;;;;14.50;10.23;;;10.50;99.90;;;;;;5092830;28;20418;-86
2021/09/06 01:46:30;;;;;;;13.30;9.00;;;10.40;99.90;;;;;;5093033;28;20422;-88
2021/09/06 01:48:57;;;;;;;13.03;8.90;;;10.40;99.90;;;;;;5093001;28;20415;-87
2021/09/06 01:51:26;;;;;;;14.50;10.80;;;10.40;99.90;;;;;;5092908;28;20502;-89
2021/09/06 01:53:52;;;;;;;14.67;9.90;;;10.50;99.90;;;;;;5092451;28;20500;-86
2021/09/06 01:56:18;;;;;;;11.00;8.40;;;10.60;99.90;;;;;;5091535;28;20892;-87
2021/09/06 01:58:44;;;;;;;13.37;8.93;;;10.60;99.90;;;;;;5092825;28;20493;-87
2021/09/06 02:01:10;;;;;;;12.87;9.10;;;10.60;99.90;;;;;;5103640;28;20267;-87
2021/09/06 02:03:36;;;;;;;13.27;8.40;;;10.50;99.90;;;;;;5117701;28;20508;-86
2021/09/06 02:06:01;;;;;;;13.17;9.70;;;10.30;99.90;;;;;;5121197;28;20488;-87
2021/09/06 02:08:27;;;;;;;13.40;8.90;;;10.30;99.90;;;;;;5121483;28;20181;-86
2021/09/06 02:10:54;;;;;;;12.00;7.90;;;10.30;99.90;;;;;;5120845;28;20236;-87
2021/09/06 02:13:20;;;;;;;10.70;7.43;;;10.20;99.90;;;;;;5119831;28;20207;-87
2021/09/06 02:15:45;;;;;;;10.07;7.90;;;10.30;99.90;;;;;;5097148;28;20421;-87
2021/09/06 02:18:11;;;;;;;11.37;7.60;;;10.10;99.90;;;;;;5095649;28;20508;-86
2021/09/06 02:20:37;;;;;;;13.70;8.87;;;10.20;99.90;;;;;;5096680;28;20173;-87
2021/09/06 02:23:03;;;;;;;12.80;9.17;;;10.20;99.90;;;;;;5096434;28;20184;-86
2021/09/06 02:25:28;;;;;;;10.97;7.50;;;10.20;99.90;;;;;;5096502;28;20192;-87
2021/09/06 02:27:54;;;;;;;11.50;8.17;;;10.20;99.90;;;;;;5096106;28;20180;-89
2021/09/06 02:30:19;;;;;;;12.20;8.93;;;10.30;99.90;;;;;;5095834;28;20263;-88
2021/09/06 02:32:45;;;;;;;16.70;9.83;;;10.20;99.90;;;;;;5096342;28;20670;-89
2021/09/06 02:35:11;;;;;;;14.63;8.87;;;10.20;99.90;;;;;;5095823;28;20183;-88
2021/09/06 02:37:36;;;;;;;13.37;9.10;;;10.20;99.90;;;;;;5095897;28;20222;-88
2021/09/06 02:40:03;;;;;;;14.27;8.93;;;10.20;99.90;;;;;;5095401;28;20590;-89
2021/09/06 02:42:29;;;;;;;12.33;8.50;;;10.20;99.90;;;;;;5095391;28;20250;-88
2021/09/06 02:44:54;;;;;;;11.03;8.27;;;10.20;99.90;;;;;;5095755;28;20460;-90
2021/09/06 02:47:20;;;;;;;8.77;7.87;;;10.00;99.90;;;;;;5095160;28;20263;-87
2021/09/06 02:49:45;;;;;;;10.40;7.57;;;10.10;99.90;;;;;;5094580;28;20175;-86
2021/09/06 02:52:11;;;;;;;9.80;8.30;;;10.10;99.90;;;;;;5095873;28;20195;-87
2021/09/06 02:54:37;;;;;;;14.37;9.67;;;10.00;99.90;;;;;;5094283;28;20183;-86
2021/09/06 02:57:03;;;;;;;13.43;8.60;;;10.00;99.90;;;;;;5095753;28;20167;-87
2021/09/06 02:59:28;;;;;;;12.97;9.30;;;10.00;99.90;;;;;;5094670;28;20179;-88
2021/09/06 03:01:54;;;;;;;13.07;9.13;;;10.00;99.90;;;;;;5094976;28;20468;-89
2021/09/06 03:04:21;;;;;;;12.17;9.07;;;10.10;99.90;;;;;;5097220;28;20175;-87
2021/09/06 03:06:46;;;;;;;14.40;8.10;;;10.00;99.90;;;;;;5095830;28;20182;-90
2021/09/06 03:09:12;;;;;;;15.10;9.90;;;10.10;99.90;;;;;;5095545;28;20450;-88
2021/09/06 03:11:38;;;;;;;11.73;9.20;;;10.10;99.90;;;;;;5095891;28;20176;-88
2021/09/06 03:14:04;;;;;;;13.87;9.37;;;10.00;99.90;;;;;;5094375;28;20232;-87
2021/09/06 03:16:29;;;;;;;18.30;10.23;;;9.90;99.90;;;;;;5094913;28;20406;-88
2021/09/06 03:18:55;;;;;;;17.57;10.90;;;9.90;99.90;;;;;;5094431;28;20172;-88
2021/09/06 03:21:22;;;;;;;15.67;9.60;;;9.80;99.90;;;;;;5094738;28;20233;-88
2021/09/06 03:23:47;;;;;;;13.27;9.43;;;9.80;99.90;;;;;;5094675;28;20176;-90
2021/09/06 03:26:14;;;;;;;13.70;8.77;;;9.80;99.90;;;;;;5094786;28;20507;-88
2021/09/06 03:28:41;;;;;;;14.20;7.93;;;9.80;99.90;;;;;;5094465;28;20172;-87
2021/09/06 03:31:07;;;;;;;11.70;7.93;;;9.70;99.90;;;;;;5094168;28;20918;-87
2021/09/06 03:33:32;;;;;;;15.70;9.40;;;9.70;99.90;;;;;;5094182;28;20432;-88
2021/09/06 03:35:58;;;;;;;14.23;8.30;;;9.60;99.90;;;;;;5093998;28;20427;-88
2021/09/06 03:38:24;;;;;;;13.73;9.20;;;9.70;99.90;;;;;;5093583;28;20172;-87
2021/09/06 03:40:49;;;;;;;11.13;7.93;;;9.60;99.90;;;;;;5093872;28;20178;-87
2021/09/06 03:43:15;;;;;;;11.87;7.80;;;9.60;99.90;;;;;;5094945;28;20688;-88
2021/09/06 03:45:40;;;;;;;14.07;9.43;;;9.60;99.90;;;;;;5093971;28;20654;-89
2021/09/06 03:48:06;;;;;;;14.07;8.90;;;9.70;99.90;;;;;;5094062;28;20203;-88
2021/09/06 03:50:32;;;;;;;12.23;8.33;;;9.80;99.90;;;;;;5094039;28;20172;-87
2021/09/06 03:52:57;;;;;;;14.63;9.33;;;9.80;99.90;;;;;;5094582;28;20589;-88
2021/09/06 03:55:23;;;;;;;13.90;8.97;;;9.80;99.90;;;;;;5093554;28;20183;-87
2021/09/06 03:57:48;;;;;;;14.70;10.20;;;9.90;99.90;;;;;;5093582;28;20177;-87
2021/09/06 04:00:14;;;;;;;11.77;8.90;;;9.90;99.90;;;;;;5093893;28;20178;-88
2021/09/06 04:02:40;;;;;;;12.20;7.70;;;9.80;99.90;;;;;;5094425;28;20208;-90
2021/09/06 04:05:06;;;;;;;15.37;9.10;;;9.70;99.90;;;;;;5094568;28;20172;-91
2021/09/06 04:07:31;;;;;;;13.13;9.13;;;9.70;99.90;;;;;;5094127;28;20933;-90
2021/09/06 04:09:57;;;;;;;12.20;8.20;;;9.70;99.90;;;;;;5093548;28;20224;-88
2021/09/06 04:12:23;;;;;;;15.23;8.27;;;9.60;99.90;;;;;;5093876;28;20276;-89
2021/09/06 04:14:50;;;;;;;13.37;9.50;;;9.50;99.90;;;;;;5093930;28;20262;-91
2021/09/06 04:17:16;;;;;;;12.20;8.60;;;9.40;99.90;;;;;;5093994;28;20172;-89
2021/09/06 04:19:41;;;;;;;14.40;8.57;;;9.40;99.90;;;;;;5093926;28;20421;-90
2021/09/06 04:22:07;;;;;;;10.90;7.70;;;9.40;99.90;;;;;;5093533;28;20227;-88
2021/09/06 04:24:33;;;;;;;13.60;8.20;;;9.30;99.90;;;;;;5092960;28;20622;-88
2021/09/06 04:26:59;;;;;;;10.70;8.10;;;9.40;99.90;;;;;;5093141;28;20274;-88
2021/09/06 04:29:25;;;;;;;10.60;6.90;;;9.50;99.90;;;;;;5092661;28;20178;-88
2021/09/06 04:31:51;;;;;;;12.93;9.23;;;9.50;99.90;;;;;;5092886;28;20442;-87
2021/09/06 04:34:17;;;;;;;11.13;8.27;;;9.50;99.90;;;;;;5092766;28;20457;-88
2021/09/06 04:36:42;;;;;;;13.73;7.90;;;9.50;99.90;;;;;;5094000;28;20418;-87
2021/09/06 04:39:08;;;;;;;9.37;7.70;;;9.40;99.90;;;;;;5092392;28;20179;-88
2021/09/06 04:41:34;;;;;;;10.93;7.03;;;9.50;99.90;;;;;;5092657;28;20195;-87
2021/09/06 04:44:00;;;;;;;10.60;7.10;;;9.50;99.90;;;;;;5092671;28;20416;-87
2021/09/06 04:46:26;;;;;;;12.17;7.47;;;9.70;99.90;;;;;;5092516;28;20168;-88
2021/09/06 04:48:51;;;;;;;12.80;8.23;;;9.70;99.90;;;;;;5092785;28;20183;-87
2021/09/06 04:51:17;;;;;;;10.97;7.27;;;9.90;99.90;;;;;;5093739;28;20191;-87
2021/09/06 04:53:46;;;;;;;9.80;7.43;;;9.90;99.90;;;;;;5092286;28;20182;-88
2021/09/06 04:56:12;;;;;;;19.33;7.77;;;9.80;99.90;;;;;;5093797;28;20245;-88
2021/09/06 04:58:38;;;;;;;13.27;7.30;;;9.80;99.90;;;;;;5093756;28;20402;-88
2021/09/06 05:01:04;;;;;;;11.63;7.67;;;9.90;99.90;;;;;;5092162;28;20454;-88
2021/09/06 05:03:30;;;;;;;17.00;8.40;;;9.90;99.90;;;;;;5093540;28;20176;-88
2021/09/06 05:05:58;;;;;;;15.10;7.10;;;10.00;99.90;;;;;;5092283;28;20516;-88
2021/09/06 05:08:24;;;;;;;19.07;8.13;;;10.00;99.90;;;;;;5091983;28;20206;-87
2021/09/06 05:10:50;;;;;;;19.50;7.83;;;10.20;99.90;;;;;;5091821;28;20499;-86
2021/09/06 05:13:16;;;;;;;12.73;8.40;;;10.20;99.90;;;;;;5091887;28;20413;-87
2021/09/06 05:15:41;;;;;;;13.10;8.00;;;10.20;99.90;;;;;;5093236;28;20566;-86
2021/09/06 05:18:07;;;;;;;10.33;7.60;;;10.20;99.90;;;;;;5091812;28;20172;-86
2021/09/06 05:20:32;;;;;;;11.03;6.90;;;10.20;99.90;;;;;;5091843;28;20233;-87
2021/09/06 05:22:58;;;;;;;10.50;7.20;;;10.10;99.90;;;;;;5091455;28;20307;-86
2021/09/06 05:25:24;;;;;;;13.50;8.47;;;10.10;99.90;;;;;;5093105;28;20647;-86
2021/09/06 05:27:49;;;;;;;11.83;8.40;;;10.30;99.90;;;;;;5091887;28;20172;-87
2021/09/06 05:30:15;;;;;;;15.80;9.33;;;10.40;99.90;;;;;;5093147;28;20213;-88
2021/09/06 05:32:41;;;;;;;17.63;8.50;;;10.40;99.90;;;;;;5093171;28;20529;-88
2021/09/06 05:35:07;;;;;;;12.47;7.67;;;10.40;99.90;;;;;;5092014;28;20308;-87
2021/09/06 05:37:33;;;;;;;18.90;8.27;;;10.40;99.90;;;;;;5091711;28;20426;-87
2021/09/06 05:39:58;;;;;;;11.43;7.73;;;10.50;99.90;;;;;;5094504;28;20507;-89
2021/09/06 05:42:24;;;;;;;13.07;9.00;;;10.70;99.90;;;;;;5097124;28;20292;-87
2021/09/06 05:44:50;;;;;;;15.43;9.00;;;10.70;99.90;;;;;;5097398;28;20265;-87
2021/09/06 05:47:17;;;;;;;20.43;9.03;;;10.80;99.90;;;;;;5096070;28;20544;-88
2021/09/06 05:49:42;;;;;;;16.10;8.83;;;10.80;99.90;;;;;;5095695;28;20451;-86
2021/09/06 05:52:08;;;;;;;16.90;8.73;;;11.00;99.90;;;;;;5095458;28;20449;-85
2021/09/06 05:54:34;;;;;;;14.57;8.50;;;10.90;99.90;;;;;;5096472;28;20177;-85
2021/09/06 05:57:00;;;;;;;16.43;8.90;;;11.10;99.90;;;;;;5096659;28;20166;-86
2021/09/06 05:59:25;;;;;;;23.50;9.90;;;11.10;99.90;;;;;;5095510;28;20207;-86
2021/09/06 06:01:51;;;;;;;14.33;9.20;;;11.30;99.90;;;;;;5096603;28;20200;-86
2021/09/06 06:04:17;;;;;;;13.47;8.83;;;11.40;99.90;;;;;;5095734;28;20290;-86
2021/09/06 06:06:42;;;;;;;20.30;8.93;;;11.40;99.90;;;;;;5096956;28;20861;-88
2021/09/06 06:09:08;;;;;;;16.17;10.57;;;11.40;99.90;;;;;;5095332;28;20233;-89
2021/09/06 06:11:38;;;;;;;14.97;10.37;;;11.50;99.90;;;;;;5097255;28;20179;-88
2021/09/06 06:14:04;;;;;;;16.87;10.53;;;11.50;99.90;;;;;;5095756;28;20646;-89
2021/09/06 06:16:30;;;;;;;15.40;9.87;;;11.70;99.90;;;;;;5097137;28;20505;-88
2021/09/06 06:18:56;;;;;;;24.07;10.33;;;11.60;99.90;;;;;;5095731;28;20412;-89
2021/09/06 06:21:22;;;;;;;15.57;10.17;;;11.50;99.90;;;;;;5096566;28;20480;-88
2021/09/06 06:23:48;;;;;;;15.20;10.77;;;11.60;99.90;;;;;;5096483;28;20407;-88
2021/09/06 06:26:13;;;;;;;36.67;11.43;;;11.70;99.90;;;;;;5095589;28;20164;-90
2021/09/06 06:28:39;;;;;;;14.37;10.20;;;11.60;99.90;;;;;;5095753;28;20250;-88
2021/09/06 06:31:04;;;;;;;14.40;10.20;;;11.60;99.90;;;;;;5096536;28;20629;-89
2021/09/06 06:33:30;;;;;;;14.07;10.63;;;12.00;99.90;;;;;;5095369;28;20261;-89
2021/09/06 06:36:01;;;;;;;17.90;9.80;;;12.20;99.90;;;;;;5095600;28;20177;-89
2021/09/06 06:38:28;;;;;;;13.30;11.30;;;12.50;99.90;;;;;;5094923;28;20188;-87
2021/09/06 06:40:54;;;;;;;15.03;10.00;;;13.00;99.90;;;;;;5094660;28;20425;-88
2021/09/06 06:43:20;;;;;;;14.67;9.53;;;13.30;99.90;;;;;;5094816;28;20420;-87
2021/09/06 06:45:45;;;;;;;13.27;8.90;;;13.50;99.90;;;;;;5094907;28;20172;-87
2021/09/06 06:48:11;;;;;;;15.80;10.90;;;13.70;99.90;;;;;;5096413;28;20194;-90
2021/09/06 06:50:36;;;;;;;15.20;10.53;;;14.70;99.90;;;;;;5095436;28;20168;-89
2021/09/06 06:53:02;;;;;;;15.63;10.70;;;14.70;99.90;;;;;;5094607;28;20172;-89
2021/09/06 06:55:28;;;;;;;13.97;9.67;;;14.90;99.90;;;;;;5096001;28;20173;-90
2021/09/06 06:57:53;;;;;;;10.63;9.20;;;15.30;99.90;;;;;;5095495;28;20178;-91
2021/09/06 07:00:19;;;;;;;14.70;10.00;;;15.50;99.90;;;;;;5095278;28;20243;-91
2021/09/06 07:02:45;;;;;;;13.10;11.07;;;15.40;99.90;;;;;;5096227;28;20209;-90
2021/09/06 07:05:11;;;;;;;14.17;10.63;;;16.20;99.90;;;;;;5095088;28;20187;-90
2021/09/06 07:07:37;;;;;;;14.03;11.20;;;17.20;99.90;;;;;;5094688;28;20184;-89
2021/09/06 07:10:03;;;;;;;11.87;9.80;;;18.90;99.90;;;;;;5094810;28;20471;-90
2021/09/06 07:12:28;;;;;;;14.63;10.67;;;19.50;99.90;;;;;;5094919;28;20429;-91
2021/09/06 07:14:54;;;;;;;11.37;9.60;;;19.70;99.90;;;;;;5094557;28;20219;-88
2021/09/06 07:17:20;;;;;;;15.90;10.97;;;20.40;99.90;;;;;;5094564;28;20273;-90
2021/09/06 07:19:46;;;;;;;10.93;9.73;;;20.70;99.90;;;;;;5094670;28;20179;-91
2021/09/06 07:22:11;;;;;;;13.33;10.93;;;21.50;99.90;;;;;;5094213;28;20232;-89
2021/09/06 07:24:37;;;;;;;14.53;11.13;;;21.70;99.90;;;;;;5094138;28;20169;-90
2021/09/06 07:27:03;;;;;;;12.57;11.20;;;21.80;99.90;;;;;;5094329;28;20256;-89
2021/09/06 07:29:28;;;;;;;12.37;11.07;;;21.60;99.90;;;;;;5094284;28;20624;-90
2021/09/06 07:31:54;;;;;;;13.73;12.30;;;21.50;99.90;;;;;;5094337;28;20644;-89
2021/09/06 07:34:23;;;;;;;16.47;11.80;;;22.10;99.90;;;;;;5094368;28;20575;-91
2021/09/06 07:36:49;;;;;;;13.77;12.47;;;22.90;99.90;;;;;;5094047;28;20426;-90
2021/09/06 07:39:16;;;;;;;13.90;12.47;;;23.30;99.90;;;;;;5094941;28;20411;-90
2021/09/06 07:41:43;;;;;;;16.73;13.43;;;22.60;99.90;;;;;;5095164;28;20203;-91
2021/09/06 07:44:09;;;;;;;14.90;13.07;;;23.20;99.90;;;;;;5094342;28;20520;-90
2021/09/06 07:46:34;;;;;;;18.73;13.33;;;23.80;99.90;;;;;;5094036;28;20857;-89
2021/09/06 07:49:00;;;;;;;15.27;13.67;;;24.20;99.90;;;;;;5094200;28;20177;-90
2021/09/06 07:51:26;;;;;;;16.80;13.90;;;23.40;99.90;;;;;;5094084;28;20179;-92
2021/09/06 07:53:51;;;;;;;17.60;15.80;;;20.40;99.90;;;;;;5093764;28;20207;-91
2021/09/06 07:56:17;;;;;;;15.63;14.13;;;19.00;99.90;;;;;;5093898;28;20221;-92
2021/09/06 07:58:42;;;;;;;16.77;14.93;;;20.50;99.90;;;;;;5093867;28;20371;-91
2021/09/06 08:01:08;;;;;;;16.83;15.10;;;20.20;99.90;;;;;;5094162;28;20199;-91
2021/09/06 08:03:34;;;;;;;19.53;16.53;;;18.80;99.90;;;;;;5094086;28;20177;-90
2021/09/06 08:05:59;;;;;;;15.00;13.40;;;17.90;99.90;;;;;;5093777;28;20176;-90
2021/09/06 08:08:25;;;;;;;16.53;14.83;;;17.70;99.90;;;;;;5093565;28;20540;-89
2021/09/06 08:10:50;;;;;;;19.20;16.13;;;17.70;99.90;;;;;;5093242;28;20230;-90
2021/09/06 08:13:16;;;;;;;18.90;15.40;;;17.80;99.90;;;;;;5093269;28;20192;-89
2021/09/06 08:15:42;;;;;;;19.17;14.93;;;19.60;99.90;;;;;;5094887;28;20168;-91
2021/09/06 08:18:07;;;;;;;17.47;15.60;;;20.90;99.90;;;;;;5093641;28;20204;-90
2021/09/06 08:20:34;;;;;;;16.53;14.43;;;22.80;99.90;;;;;;5093566;28;20180;-90
2021/09/06 08:23:00;;;;;;;16.17;14.43;;;22.90;99.90;;;;;;5092803;28;20212;-90
2021/09/06 08:25:38;;;;;;;19.00;15.27;;;22.00;99.90;;;;;;5094498;28;20406;-91
2021/09/06 08:28:04;;;;;;;20.13;15.63;;;21.70;99.90;;;;;;5093047;28;20172;-90
2021/09/06 08:30:29;;;;;;;16.67;15.00;;;22.00;99.90;;;;;;5094128;28;20898;-90
2021/09/06 08:32:55;;;;;;;17.40;15.40;;;23.20;99.90;;;;;;5092389;28;20410;-91
2021/09/06 08:35:21;;;;;;;16.77;15.07;;;23.00;99.90;;;;;;5092923;28;20180;-90
2021/09/06 08:37:50;;;;;;;17.17;14.93;;;22.80;99.90;;;;;;5093436;28;20161;-90
2021/09/06 08:40:17;;;;;;;16.87;15.07;;;23.90;99.90;;;;;;5093390;28;20173;-90
2021/09/06 08:42:43;;;;;;;16.77;15.07;;;24.70;99.90;;;;;;5094044;28;20473;-90
2021/09/06 08:45:10;;;;;;;19.40;16.30;;;25.40;99.90;;;;;;5092562;28;20427;-90
2021/09/06 08:47:37;;;;;;;17.77;15.70;;;25.10;99.90;;;;;;5092587;28;20413;-90
2021/09/06 08:50:06;;;;;;;20.07;16.70;;;25.60;99.90;;;;;;5092401;28;20953;-89
2021/09/06 08:52:32;;;;;;;16.73;15.00;;;25.70;99.70;;;;;;5092113;28;20769;-89
2021/09/06 08:54:58;;;;;;;17.73;15.90;;;26.10;98.40;;;;;;5093606;28;20407;-90
2021/09/06 08:57:23;;;;;;;16.90;14.97;;;26.40;97.30;;;;;;5093563;28;20561;-90
2021/09/06 08:59:57;;;;;;;19.67;15.97;;;26.50;96.70;;;;;;5091898;28;20222;-91
2021/09/06 09:02:24;;;;;;;18.93;16.00;;;26.90;96.00;;;;;;5092007;28;20218;-90
2021/09/06 09:05:01;;;;;;;20.47;16.57;;;27.10;95.10;;;;;;5093556;28;20820;-91
2021/09/06 09:07:28;;;;;;;18.23;16.20;;;27.10;94.60;;;;;;5092841;28;20823;-91
2021/09/06 09:09:54;;;;;;;19.00;15.10;;;27.40;94.60;;;;;;5091982;28;20999;-89
2021/09/06 09:12:21;;;;;;;17.40;15.60;;;27.30;94.60;;;;;;5093348;28;20419;-90
2021/09/06 09:14:58;;;;;;;17.90;14.80;;;27.40;92.50;;;;;;5092761;28;20168;-89
2021/09/06 09:17:24;;;;;;;18.23;14.93;;;27.60;93.10;;;;;;5093195;28;20446;-82
2021/09/06 09:19:51;;;;;;;18.37;15.60;;;27.30;94.90;;;;;;5093291;28;20433;-83
2021/09/06 09:22:37;;;;;;;17.90;14.67;;;27.10;92.50;;;;;;5091634;28;20478;-83
2021/09/06 09:25:08;;;;;;;17.70;15.70;;;26.80;94.00;;;;;;5093090;28;20841;-83
2021/09/06 09:27:38;;;;;;;17.10;14.67;;;27.10;92.90;;;;;;5096028;28;20508;-93
2021/09/06 09:30:09;;;;;;;18.47;15.03;;;27.10;92.10;;;;;;5111965;28;20456;-92
2021/09/06 09:32:37;;;;;;;15.10;13.60;;;27.20;93.10;;;;;;5112251;28;20493;-91
2021/09/06 09:35:05;;;;;;;17.30;14.27;;;27.00;93.20;;;;;;5113775;28;20417;-89
2021/09/06 09:37:31;;;;;;;16.60;14.90;;;27.50;92.10;;;;;;5112869;28;20402;-84
2021/09/06 09:39:59;;;;;;;15.03;13.53;;;27.50;91.90;;;;;;5112483;28;20410;-84
2021/09/06 09:42:24;;;;;;;19.43;13.50;;;27.30;90.40;;;;;;5113075;28;20557;-85
2021/09/06 09:44:54;;;;;;;18.40;11.60;;;26.80;94.00;;;;;;5111905;28;20508;-85
2021/09/06 09:47:23;;;;;;;14.47;11.03;;;26.70;94.30;;;;;;5113187;28;20537;-86
2021/09/06 09:49:50;;;;;;;15.57;13.47;;;26.00;96.60;;;;;;5113306;28;20755;-86
2021/09/06 09:52:18;;;;;;;15.00;13.50;;;25.40;96.50;;;;;;5112739;28;20470;-91
2021/09/06 09:54:45;;;;;;;13.90;11.83;;;25.10;99.90;;;;;;5113493;28;20473;-87
2021/09/06 09:57:12;;;;;;;14.57;11.90;;;27.30;93.40;;;;;;5112214;28;20422;-84
2021/09/06 09:59:40;;;;;;;12.37;11.03;;;27.30;93.70;;;;;;5113274;28;20488;-85
2021/09/06 10:02:07;;;;;;;13.20;11.80;;;28.10;91.10;;;;;;5113353;28;20606;-88
2021/09/06 10:04:39;;;;;;;15.10;13.33;;;28.40;91.30;;;;;;5112938;28;20406;-84
2021/09/06 10:07:05;;;;;;;14.27;12.77;;;26.50;90.30;;;;;;5111359;28;20413;-82
2021/09/06 10:09:43;;;;;;;15.43;12.53;;;24.70;99.90;;;;;;5112863;28;20455;-87
2021/09/06 10:12:09;;;;;;;15.13;13.33;;;25.20;99.20;;;;;;5113000;28;20709;-87
2021/09/06 10:14:51;;;;;;;13.90;12.50;;;25.70;95.50;;;;;;5113184;28;20457;-86
2021/09/06 10:17:17;;;;;;;11.70;10.60;;;24.30;99.80;;;;;;5113141;28;20910;-87
2021/09/06 10:19:56;;;;;;;16.17;12.43;;;23.50;99.90;;;;;;5111991;28;20418;-84
2021/09/06 10:22:26;;;;;;;14.07;11.00;;;23.30;99.90;;;;;;5112321;28;20207;-84
2021/09/06 10:25:00;;;;;;;15.50;12.67;;;24.10;99.90;;;;;;5112987;28;20988;-84
2021/09/06 10:27:27;;;;;;;15.83;12.10;;;23.80;99.90;;;;;;5115280;28;20428;-85
2021/09/06 10:30:10;;;;;;;12.80;10.87;;;24.00;99.90;;;;;;5114710;28;20500;-84
2021/09/06 10:32:42;;;;;;;15.10;10.70;;;24.40;99.90;;;;;;5116499;28;20409;-85
2021/09/06 10:35:17;;;;;;;13.00;11.67;;;24.50;99.90;;;;;;5116189;27;20773;-85
2021/09/06 10:37:43;;;;;;;14.20;11.10;;;24.00;99.90;;;;;;5116215;28;20424;-84
2021/09/06 10:40:12;;;;;;;12.47;11.10;;;23.50;99.90;;;;;;5116410;28;20416;-87
2021/09/06 10:42:41;;;;;;;15.33;11.90;;;23.10;99.90;;;;;;5116299;28;20503;-84
2021/09/06 10:45:08;;;;;;;13.90;11.27;;;22.80;99.90;;;;;;5116376;28;20436;-84
2021/09/06 10:47:39;;;;;;;14.50;11.00;;;22.70;99.90;;;;;;5116301;28;20428;-83
2021/09/06 10:50:16;;;;;;;12.20;10.93;;;22.60;99.90;;;;;;5116267;28;20405;-84
2021/09/06 10:52:44;;;;;;;13.77;11.37;;;22.20;99.90;;;;;;5114610;28;20511;-84
2021/09/06 10:55:10;;;;;;;14.67;11.57;;;21.80;99.90;;;;;;5116151;28;20920;-84
2021/09/06 10:57:40;;;;;;;13.50;11.30;;;21.80;99.90;;;;;;5114764;28;20436;-84
2021/09/06 11:00:08;;;;;;;15.70;13.03;;;22.10;99.90;;;;;;5116228;28;20771;-84
2021/09/06 11:02:35;;;;;;;12.33;9.70;;;22.20;99.90;;;;;;5115874;28;20473;-85
2021/09/06 11:05:02;;;;;;;11.83;10.30;;;22.00;99.90;;;;;;5116008;28;20415;-84
2021/09/06 11:07:27;;;;;;;12.13;9.93;;;22.10;99.90;;;;;;5115605;28;20413;-84
2021/09/06 11:09:53;;;;;;;13.13;10.77;;;22.30;99.90;;;;;;5115676;28;20856;-84
2021/09/06 11:12:18;;;;;;;10.60;8.57;;;22.70;99.90;;;;;;5115811;28;20259;-84
2021/09/06 11:14:46;;;;;;;14.70;9.33;;;22.60;99.90;;;;;;5115731;28;20168;-85
2021/09/06 11:17:22;;;;;;;16.27;9.40;;;22.50;99.90;;;;;;5115717;28;20172;-83
2021/09/06 11:19:49;;;;;;;10.50;8.90;;;22.50;99.90;;;;;;5114421;28;20416;-84
2021/09/06 11:22:17;;;;;;;11.20;9.10;;;22.40;99.90;;;;;;5115088;28;20468;-85
2021/09/06 11:24:44;;;;;;;14.17;11.30;;;22.80;99.90;;;;;;5115623;28;20428;-83
2021/09/06 11:27:28;;;;;;;12.20;11.00;;;22.80;99.90;;;;;;5115613;28;20418;-84
2021/09/06 11:29:54;;;;;;;12.10;10.23;;;22.60;99.90;;;;;;5114222;28;20410;-86
2021/09/06 11:32:19;;;;;;;12.97;9.80;;;23.00;99.90;;;;;;5114244;28;20422;-85
2021/09/06 11:34:48;;;;;;;11.83;10.13;;;23.40;99.90;;;;;;5115484;28;20254;-84
2021/09/06 11:37:14;;;;;;;14.50;10.20;;;23.70;99.90;;;;;;5114487;28;20214;-86
2021/09/06 11:39:45;;;;;;;12.07;9.80;;;23.40;99.90;;;;;;5115309;28;20885;-85
2021/09/06 11:42:11;;;;;;;13.90;10.50;;;23.00;99.90;;;;;;5113900;28;21003;-85
2021/09/06 11:44:38;;;;;;;13.17;10.53;;;22.70;99.90;;;;;;5115320;28;20405;-84
2021/09/06 11:47:04;;;;;;;13.03;10.20;;;22.70;99.90;;;;;;5115179;28;20439;-84
2021/09/06 11:49:29;;;;;;;12.50;10.70;;;23.00;99.90;;;;;;5115214;28;20809;-84
2021/09/06 11:52:06;;;;;;;14.63;10.43;;;23.20;99.90;;;;;;5114675;28;20426;-84
2021/09/06 11:54:41;;;;;;;11.57;9.00;;;23.30;99.90;;;;;;5115032;28;20174;-84
2021/09/06 11:57:06;;;;;;;11.37;10.37;;;24.10;99.90;;;;;;5114971;28;20405;-84
2021/09/06 11:59:32;;;;;;;10.80;9.50;;;24.30;99.90;;;;;;5113561;28;20420;-85
2021/09/06 12:01:57;;;;;;;10.57;9.43;;;24.60;99.90;;;;;;5114661;28;20215;-85
2021/09/06 12:04:23;;;;;;;10.40;9.33;;;25.00;99.30;;;;;;5114782;28;20171;-85
2021/09/06 12:06:48;;;;;;;9.80;8.77;;;25.10;96.60;;;;;;5114390;28;20172;-85
2021/09/06 12:09:16;;;;;;;13.50;9.70;;;24.60;95.80;;;;;;5114365;28;20211;-84
2021/09/06 12:11:43;;;;;;;9.87;8.83;;;24.20;98.50;;;;;;5114505;28;20566;-84
2021/09/06 12:14:09;;;;;;;9.57;8.27;;;24.80;99.90;;;;;;5114444;28;20477;-87
2021/09/06 12:16:37;;;;;;;9.27;8.33;;;25.40;97.60;;;;;;5114580;28;20849;-84
2021/09/06 12:19:16;;;;;;;9.43;7.80;;;24.90;95.60;;;;;;5114547;28;20417;-84
2021/09/06 12:21:43;;;;;;;9.73;8.03;;;24.80;96.80;;;;;;5114073;28;20456;-85
2021/09/06 12:24:09;;;;;;;12.73;9.43;;;24.90;97.40;;;;;;5114343;28;20510;-84
2021/09/06 12:26:53;;;;;;;10.53;9.20;;;24.20;95.40;;;;;;5114410;28;20452;-85
2021/09/06 12:29:30;;;;;;;11.70;8.40;;;23.80;97.70;;;;;;5114084;28;20178;-85
2021/09/06 12:31:56;;;;;;;11.30;10.10;;;23.60;99.90;;;;;;5104242;28;20492;-85